Time;durP1;ratioP1;P1;durP2;ratioP2;P2;SDS_P1;SDS_P2;PMS_P1;PMS_P2;Temp;Humidity;BMP_temperature;BMP_pressure;BME280_temperature;BME280_humidity;BME280_pressure;Samples;Min_cycle;Max_cycle;Signal;HPM_P1;HPM_P2
2024/03/19 00:00:19;;;;;;;16.75;11.30;;;10.50;85.30;;;;;;5071411;28;20025;-43
2024/03/19 00:02:46;;;;;;;15.55;11.00;;;10.50;85.40;;;;;;5070274;28;20048;-37
2024/03/19 00:05:11;;;;;;;17.88;10.10;;;10.50;85.50;;;;;;5071376;28;20013;-36
2024/03/19 00:07:37;;;;;;;18.70;10.55;;;10.50;85.50;;;;;;5071606;28;20514;-38
2024/03/19 00:10:03;;;;;;;15.68;10.38;;;10.40;85.50;;;;;;5071739;28;20033;-30
2024/03/19 00:12:32;;;;;;;17.20;10.90;;;10.50;85.50;;;;;;5071548;28;20028;-29
2024/03/19 00:15:01;;;;;;;16.85;10.40;;;10.50;85.50;;;;;;5071588;28;20028;-32
2024/03/19 00:17:27;;;;;;;17.08;10.90;;;10.50;85.60;;;;;;5071709;28;20385;-30
2024/03/19 00:19:55;;;;;;;18.30;11.07;;;10.50;85.60;;;;;;5071201;28;20027;-31
2024/03/19 00:22:22;;;;;;;18.70;11.02;;;10.50;85.60;;;;;;5071494;28;20051;-30
2024/03/19 00:24:48;;;;;;;19.08;12.38;;;10.60;85.70;;;;;;5071374;28;20017;-33
2024/03/19 00:27:14;;;;;;;19.98;11.60;;;10.60;85.70;;;;;;5070202;28;20024;-32
2024/03/19 00:29:40;;;;;;;17.27;11.10;;;10.60;85.70;;;;;;5071223;28;20020;-34
2024/03/19 00:32:06;;;;;;;16.02;11.07;;;10.50;85.70;;;;;;5071490;28;20033;-35
2024/03/19 00:34:31;;;;;;;18.10;11.15;;;10.50;85.70;;;;;;5070027;28;20028;-32
2024/03/19 00:36:59;;;;;;;17.05;11.82;;;10.50;85.80;;;;;;5075473;28;20052;-34
2024/03/19 00:39:24;;;;;;;17.25;10.80;;;10.50;85.90;;;;;;5075285;28;20028;-33
2024/03/19 00:41:50;;;;;;;19.15;11.55;;;10.50;85.90;;;;;;5075271;28;20470;-30
2024/03/19 00:44:17;;;;;;;21.23;11.35;;;10.50;85.90;;;;;;5074101;28;20704;-30
2024/03/19 00:46:43;;;;;;;21.08;11.80;;;10.50;85.90;;;;;;5075268;28;20100;-34
2024/03/19 00:49:09;;;;;;;18.00;11.77;;;10.50;85.90;;;;;;5075039;28;20214;-35
2024/03/19 00:51:35;;;;;;;19.67;11.32;;;10.60;86.00;;;;;;5075254;28;20021;-31
2024/03/19 00:54:00;;;;;;;16.30;11.63;;;10.60;86.00;;;;;;5075144;28;20443;-33
2024/03/19 00:56:26;;;;;;;19.38;11.27;;;10.60;86.00;;;;;;5075086;28;20028;-33
2024/03/19 00:58:51;;;;;;;17.08;10.93;;;10.70;86.00;;;;;;5074889;28;20019;-32
2024/03/19 01:01:17;;;;;;;16.73;11.25;;;10.60;86.00;;;;;;5075085;28;20132;-32
2024/03/19 01:03:43;;;;;;;17.27;11.70;;;10.70;86.00;;;;;;5075047;28;20054;-30
2024/03/19 01:06:09;;;;;;;17.55;11.43;;;10.70;86.00;;;;;;5074804;28;20016;-31
2024/03/19 01:08:35;;;;;;;17.58;11.10;;;10.70;86.00;;;;;;5074878;28;20402;-32
2024/03/19 01:11:03;;;;;;;20.45;11.52;;;10.70;86.00;;;;;;5074754;28;20059;-31
2024/03/19 01:13:32;;;;;;;17.02;10.90;;;10.70;86.10;;;;;;5074628;28;20054;-35
2024/03/19 01:15:57;;;;;;;16.40;10.25;;;10.70;86.10;;;;;;5073365;28;20025;-31
2024/03/19 01:18:23;;;;;;;19.77;11.07;;;10.80;86.10;;;;;;5074374;28;20036;-32
2024/03/19 01:20:49;;;;;;;16.75;11.15;;;10.80;86.10;;;;;;5073290;28;20093;-37
2024/03/19 01:23:14;;;;;;;14.98;10.63;;;10.80;86.10;;;;;;5074833;28;20520;-31
2024/03/19 01:25:40;;;;;;;16.83;10.73;;;10.90;86.10;;;;;;5074467;28;20029;-37
2024/03/19 01:28:05;;;;;;;17.85;10.45;;;10.90;86.10;;;;;;5074519;28;20021;-31
2024/03/19 01:30:32;;;;;;;16.08;10.82;;;10.90;86.00;;;;;;5074543;28;20070;-39
2024/03/19 01:32:58;;;;;;;18.20;10.75;;;10.90;86.10;;;;;;5074611;28;20542;-38
2024/03/19 01:35:23;;;;;;;16.88;10.70;;;10.90;86.00;;;;;;5074395;28;20025;-38
2024/03/19 01:37:49;;;;;;;18.55;10.93;;;10.90;86.70;;;;;;5074528;28;20024;-37
2024/03/19 01:40:14;;;;;;;16.80;10.65;;;10.90;86.00;;;;;;5073908;28;20476;-36
2024/03/19 01:42:40;;;;;;;17.05;10.77;;;10.90;86.00;;;;;;5074326;28;20115;-38
2024/03/19 01:45:11;;;;;;;16.98;10.45;;;10.90;86.10;;;;;;5074105;28;20058;-38
2024/03/19 01:47:38;;;;;;;19.83;10.52;;;10.90;86.10;;;;;;5073824;28;20024;-38
2024/03/19 01:50:09;;;;;;;16.52;10.50;;;11.00;86.20;;;;;;5074089;28;20033;-38
2024/03/19 01:52:40;;;;;;;15.23;9.75;;;11.00;86.20;;;;;;5073936;28;20032;-38
2024/03/19 01:55:06;;;;;;;16.98;10.05;;;11.00;86.20;;;;;;5074300;28;20089;-38
2024/03/19 01:57:32;;;;;;;15.65;9.85;;;11.00;86.10;;;;;;5073839;28;20058;-35
2024/03/19 01:59:58;;;;;;;17.67;10.40;;;11.00;86.10;;;;;;5073901;28;20103;-32
2024/03/19 02:02:36;;;;;;;16.42;10.07;;;11.00;86.10;;;;;;5073851;28;20029;-33
2024/03/19 02:05:05;;;;;;;19.58;10.90;;;11.10;86.20;;;;;;5074009;28;20431;-34
2024/03/19 02:07:31;;;;;;;16.58;10.18;;;11.10;86.10;;;;;;5073778;28;20024;-34
2024/03/19 02:09:57;;;;;;;16.25;10.02;;;11.00;86.10;;;;;;5073811;28;20029;-35
2024/03/19 02:12:23;;;;;;;16.67;10.15;;;11.00;86.10;;;;;;5073680;28;20040;-33
2024/03/19 02:14:50;;;;;;;18.23;9.98;;;11.00;86.20;;;;;;5072252;28;20117;-34
2024/03/19 02:17:16;;;;;;;14.55;9.45;;;11.00;86.20;;;;;;5073413;28;20086;-38
2024/03/19 02:19:42;;;;;;;16.27;9.07;;;11.00;86.30;;;;;;5073639;28;20028;-35
2024/03/19 02:22:09;;;;;;;15.85;9.48;;;11.00;86.30;;;;;;5073668;28;20020;-41
2024/03/19 02:24:36;;;;;;;16.95;9.55;;;11.00;86.30;;;;;;5073324;28;20021;-37
2024/03/19 02:27:02;;;;;;;16.85;9.65;;;11.00;86.30;;;;;;5073350;28;20419;-36
2024/03/19 02:29:28;;;;;;;14.38;9.13;;;11.10;86.30;;;;;;5073469;28;20023;-35
2024/03/19 02:31:53;;;;;;;15.32;8.52;;;11.10;86.30;;;;;;5073066;28;20033;-35
2024/03/19 02:34:19;;;;;;;16.27;9.00;;;11.20;86.20;;;;;;5073458;28;20050;-37
2024/03/19 02:36:45;;;;;;;13.95;9.18;;;11.20;86.10;;;;;;5073042;28;20041;-38
2024/03/19 02:39:12;;;;;;;14.20;8.77;;;11.30;86.10;;;;;;5072761;28;20028;-36
2024/03/19 02:41:38;;;;;;;15.52;9.48;;;11.30;86.10;;;;;;5072906;28;20028;-33
2024/03/19 02:44:04;;;;;;;16.83;9.18;;;11.30;86.10;;;;;;5072934;28;20024;-36
2024/03/19 02:46:30;;;;;;;13.48;9.00;;;11.30;86.10;;;;;;5073253;28;20074;-38
2024/03/19 02:48:55;;;;;;;12.80;8.77;;;11.30;86.10;;;;;;5072973;28;20363;-36
2024/03/19 02:51:21;;;;;;;14.65;9.02;;;11.30;86.10;;;;;;5073065;28;20020;-39
2024/03/19 02:53:47;;;;;;;13.85;8.75;;;11.30;86.10;;;;;;5072784;28;20456;-31
2024/03/19 02:56:12;;;;;;;13.40;8.60;;;11.40;86.20;;;;;;5073006;28;20347;-30
2024/03/19 02:58:38;;;;;;;13.93;8.32;;;11.40;86.20;;;;;;5071920;28;20052;-31
2024/03/19 03:01:03;;;;;;;13.07;8.63;;;11.40;86.10;;;;;;5072489;28;20025;-35
2024/03/19 03:03:29;;;;;;;13.63;8.20;;;11.40;86.10;;;;;;5072556;28;20020;-39
2024/03/19 03:05:55;;;;;;;13.07;7.75;;;11.50;86.00;;;;;;5072309;28;20067;-37
2024/03/19 03:08:20;;;;;;;11.57;7.75;;;11.50;86.00;;;;;;5072490;28;20024;-32
2024/03/19 03:10:47;;;;;;;13.98;7.93;;;11.50;85.90;;;;;;5072337;28;20056;-33
2024/03/19 03:13:12;;;;;;;11.43;7.40;;;11.50;85.90;;;;;;5072597;28;20446;-39
2024/03/19 03:15:38;;;;;;;11.65;7.65;;;11.50;85.80;;;;;;5072523;28;20017;-37
2024/03/19 03:18:04;;;;;;;10.73;6.82;;;11.50;85.80;;;;;;5072105;28;20024;-35
2024/03/19 03:20:30;;;;;;;10.68;6.78;;;11.50;85.80;;;;;;5072091;28;20028;-36
2024/03/19 03:22:55;;;;;;;11.00;7.20;;;11.50;85.70;;;;;;5072276;28;20055;-36
2024/03/19 03:25:21;;;;;;;11.75;7.07;;;11.60;85.70;;;;;;5072359;28;20021;-35
2024/03/19 03:27:47;;;;;;;10.68;6.32;;;11.50;85.60;;;;;;5072057;28;20028;-35
2024/03/19 03:30:13;;;;;;;12.13;6.78;;;11.50;85.60;;;;;;5071941;28;20086;-38
2024/03/19 03:32:41;;;;;;;8.60;6.63;;;11.50;85.60;;;;;;5072270;28;20031;-37
2024/03/19 03:35:10;;;;;;;12.88;7.70;;;11.50;85.50;;;;;;5072163;28;20043;-34
2024/03/19 03:37:36;;;;;;;14.05;7.82;;;11.50;85.40;;;;;;5072062;28;20099;-37
2024/03/19 03:40:37;;;;;;;12.23;8.00;;;11.50;85.40;;;;;;5071794;28;20086;-37
2024/03/19 03:42:55;;;;;;;14.80;8.02;;;11.50;85.40;;;;;;5067895;28;20021;-37
2024/03/19 03:45:21;;;;;;;15.07;8.50;;;11.50;85.50;;;;;;5072075;28;20024;-32
2024/03/19 03:47:48;;;;;;;12.43;8.52;;;11.50;85.60;;;;;;5071946;28;20017;-35
2024/03/19 03:50:14;;;;;;;16.50;9.32;;;11.50;85.60;;;;;;5070206;28;20025;-31
2024/03/19 03:52:40;;;;;;;17.17;9.68;;;11.50;85.50;;;;;;5071722;28;20473;-32
2024/03/19 03:55:07;;;;;;;16.85;9.63;;;11.50;86.20;;;;;;5071960;28;20055;-31
2024/03/19 03:57:35;;;;;;;18.23;10.00;;;11.50;85.60;;;;;;5071620;28;20039;-34
2024/03/19 04:00:08;;;;;;;19.30;9.52;;;11.50;86.30;;;;;;5071487;28;20020;-37
2024/03/19 04:02:42;;;;;;;17.48;10.35;;;11.50;85.70;;;;;;5071645;28;20095;-36
2024/03/19 04:05:08;;;;;;;15.80;9.73;;;11.50;85.70;;;;;;5071525;28;20051;-31
2024/03/19 04:07:39;;;;;;;18.58;10.18;;;11.50;85.70;;;;;;5070267;28;20056;-30
2024/03/19 04:10:10;;;;;;;18.08;10.75;;;11.50;85.80;;;;;;5070811;28;20024;-33
2024/03/19 04:12:35;;;;;;;16.02;10.15;;;11.60;85.80;;;;;;5071723;28;20024;-31
2024/03/19 04:15:02;;;;;;;16.45;10.20;;;11.60;85.80;;;;;;5071447;28;20526;-32
2024/03/19 04:17:28;;;;;;;17.88;10.32;;;11.60;85.80;;;;;;5071687;28;20108;-31
2024/03/19 04:19:54;;;;;;;15.90;11.07;;;11.60;85.80;;;;;;5071185;28;20099;-31
2024/03/19 04:22:19;;;;;;;18.67;11.48;;;11.60;85.90;;;;;;5071546;28;20099;-36
2024/03/19 04:24:47;;;;;;;16.25;10.05;;;11.60;86.00;;;;;;5071588;28;20414;-31
2024/03/19 04:27:12;;;;;;;18.30;11.32;;;11.60;86.00;;;;;;5071383;28;20021;-31
2024/03/19 04:29:38;;;;;;;17.70;11.30;;;11.60;86.00;;;;;;5071536;28;20024;-35
2024/03/19 04:32:04;;;;;;;19.65;11.38;;;11.60;86.00;;;;;;5071273;28;20025;-31
2024/03/19 04:34:29;;;;;;;17.40;10.95;;;11.70;86.10;;;;;;5069903;28;20081;-32
2024/03/19 04:36:55;;;;;;;18.67;12.13;;;11.60;86.10;;;;;;5071066;28;20048;-31
2024/03/19 04:39:21;;;;;;;20.25;11.30;;;11.70;86.10;;;;;;5070901;28;20039;-34
2024/03/19 04:41:47;;;;;;;18.27;11.70;;;11.70;86.20;;;;;;5071390;28;20024;-32
2024/03/19 04:44:13;;;;;;;17.00;11.80;;;11.70;86.20;;;;;;5071156;28;20086;-32
2024/03/19 04:46:39;;;;;;;17.95;11.55;;;11.70;86.20;;;;;;5071484;28;20177;-42
2024/03/19 04:49:04;;;;;;;19.13;11.50;;;11.70;86.30;;;;;;5070920;28;20024;-30
2024/03/19 04:51:32;;;;;;;17.58;11.23;;;11.70;86.30;;;;;;5070097;28;20060;-32
2024/03/19 04:53:58;;;;;;;19.40;12.38;;;11.70;86.30;;;;;;5071170;28;20026;-31
2024/03/19 04:56:24;;;;;;;21.38;12.27;;;11.70;86.40;;;;;;5070890;28;20025;-31
2024/03/19 04:58:50;;;;;;;18.02;11.52;;;11.70;86.40;;;;;;5069505;28;20024;-36
2024/03/19 05:01:17;;;;;;;19.25;12.45;;;11.70;86.50;;;;;;5071327;28;20082;-31
2024/03/19 05:03:43;;;;;;;20.50;12.45;;;11.70;86.50;;;;;;5071230;28;20017;-32
2024/03/19 05:06:09;;;;;;;17.95;11.77;;;11.70;86.50;;;;;;5071490;28;20044;-34
2024/03/19 05:08:36;;;;;;;19.23;12.30;;;11.70;86.50;;;;;;5070887;28;20072;-30
2024/03/19 05:11:01;;;;;;;18.58;12.13;;;11.70;86.50;;;;;;5071266;28;20436;-34
2024/03/19 05:13:27;;;;;;;20.38;12.50;;;11.70;86.60;;;;;;5071253;28;20024;-31
2024/03/19 05:15:52;;;;;;;19.58;12.82;;;11.70;86.60;;;;;;5071117;28;20024;-30
2024/03/19 05:18:18;;;;;;;18.30;12.20;;;11.70;86.70;;;;;;5071060;28;20028;-31
2024/03/19 05:20:44;;;;;;;20.42;12.85;;;11.80;86.80;;;;;;5071042;28;20072;-33
2024/03/19 05:23:09;;;;;;;21.90;12.93;;;11.70;86.70;;;;;;5074606;28;20025;-30
2024/03/19 05:25:35;;;;;;;19.92;12.55;;;11.70;86.70;;;;;;5073129;28;20147;-31
2024/03/19 05:28:00;;;;;;;18.65;12.30;;;11.80;86.80;;;;;;5074849;28;20126;-33
2024/03/19 05:30:27;;;;;;;18.20;12.18;;;11.70;86.70;;;;;;5074295;28;20031;-36
2024/03/19 05:32:53;;;;;;;20.58;12.65;;;11.70;86.80;;;;;;5074635;28;20116;-33
2024/03/19 05:35:19;;;;;;;20.65;13.10;;;11.70;86.80;;;;;;5074257;28;20082;-34
2024/03/19 05:37:45;;;;;;;19.50;12.70;;;11.70;86.80;;;;;;5074449;28;20024;-31
2024/03/19 05:40:12;;;;;;;18.13;12.23;;;11.70;86.90;;;;;;5073803;28;20349;-30
2024/03/19 05:42:38;;;;;;;20.92;12.77;;;11.70;86.90;;;;;;5074457;28;20024;-34
2024/03/19 05:45:04;;;;;;;19.42;12.02;;;11.80;86.90;;;;;;5074172;28;20118;-32
2024/03/19 05:47:31;;;;;;;19.83;12.55;;;11.80;86.90;;;;;;5073882;28;20017;-30
2024/03/19 05:49:57;;;;;;;19.55;12.18;;;11.80;87.00;;;;;;5073940;28;20043;-30
2024/03/19 05:52:24;;;;;;;19.30;11.98;;;11.80;87.60;;;;;;5074068;28;20063;-30
2024/03/19 05:54:50;;;;;;;21.85;12.60;;;11.80;87.00;;;;;;5073955;28;20028;-30
2024/03/19 05:57:17;;;;;;;21.23;11.95;;;11.80;87.00;;;;;;5073924;28;20028;-34
2024/03/19 05:59:43;;;;;;;20.38;11.88;;;11.80;87.10;;;;;;5073883;28;20021;-32
2024/03/19 06:02:09;;;;;;;20.13;12.13;;;11.80;87.10;;;;;;5074030;28;20538;-33
2024/03/19 06:04:34;;;;;;;19.35;11.88;;;11.80;87.10;;;;;;5073776;28;20158;-31
2024/03/19 06:07:00;;;;;;;22.48;12.20;;;11.80;87.00;;;;;;5074034;28;20024;-32
2024/03/19 06:09:29;;;;;;;18.65;11.52;;;11.80;87.00;;;;;;5073556;28;20029;-31
2024/03/19 06:11:55;;;;;;;24.40;15.32;;;11.80;87.00;;;;;;5073851;28;20473;-31
2024/03/19 06:14:21;;;;;;;24.40;14.07;;;11.90;87.10;;;;;;5073642;28;20029;-37
2024/03/19 06:16:46;;;;;;;21.42;13.60;;;11.90;87.00;;;;;;5073531;28;20050;-31
2024/03/19 06:19:13;;;;;;;20.38;12.77;;;11.90;87.10;;;;;;5073322;28;20477;-34
2024/03/19 06:21:38;;;;;;;19.73;12.65;;;11.90;87.10;;;;;;5073731;28;20090;-31
2024/03/19 06:24:04;;;;;;;19.88;12.00;;;12.00;87.10;;;;;;5073374;28;20054;-33
2024/03/19 06:26:30;;;;;;;19.73;12.00;;;12.00;87.10;;;;;;5073661;28;20024;-30
2024/03/19 06:28:56;;;;;;;18.10;11.52;;;12.00;87.00;;;;;;5073210;28;20455;-33
2024/03/19 06:31:21;;;;;;;19.48;12.23;;;12.00;87.00;;;;;;5073212;28;20012;-34
2024/03/19 06:33:48;;;;;;;19.08;10.90;;;12.00;87.00;;;;;;5072412;28;20012;-34
2024/03/19 06:36:13;;;;;;;16.40;11.15;;;12.00;86.90;;;;;;5073133;28;20024;-32
2024/03/19 06:38:39;;;;;;;18.98;11.48;;;12.10;87.00;;;;;;5073396;28;20025;-30
2024/03/19 06:41:05;;;;;;;17.58;12.07;;;12.10;87.00;;;;;;5072798;28;20029;-30
2024/03/19 06:43:30;;;;;;;18.42;11.25;;;12.10;87.00;;;;;;5072909;28;20492;-31
2024/03/19 06:45:56;;;;;;;19.40;12.18;;;12.10;87.00;;;;;;5073172;28;20025;-31
2024/03/19 06:48:22;;;;;;;21.15;11.98;;;12.10;86.90;;;;;;5072995;28;20442;-31
2024/03/19 06:50:48;;;;;;;19.13;11.63;;;12.20;86.90;;;;;;5072564;28;20030;-34
2024/03/19 06:53:15;;;;;;;19.75;11.30;;;12.20;86.90;;;;;;5073150;28;20036;-31
2024/03/19 06:55:41;;;;;;;17.95;11.48;;;12.20;86.90;;;;;;5072925;28;21120;-32
2024/03/19 06:58:07;;;;;;;16.85;11.38;;;12.20;86.90;;;;;;5072744;28;20108;-38
2024/03/19 07:00:32;;;;;;;17.30;12.00;;;12.20;86.90;;;;;;5072643;28;20028;-36
2024/03/19 07:02:58;;;;;;;21.20;12.07;;;12.30;86.90;;;;;;5072793;28;20025;-31
2024/03/19 07:05:24;;;;;;;18.95;11.43;;;12.30;86.80;;;;;;5072595;28;20476;-35
2024/03/19 07:07:52;;;;;;;21.40;11.45;;;12.30;86.80;;;;;;5072638;28;20025;-37
2024/03/19 07:10:19;;;;;;;19.52;12.10;;;12.30;86.80;;;;;;5072466;28;20099;-35
2024/03/19 07:12:44;;;;;;;24.02;12.10;;;12.30;86.70;;;;;;5072452;28;20028;-35
2024/03/19 07:15:10;;;;;;;15.95;10.98;;;12.30;86.70;;;;;;5072728;28;20016;-37
2024/03/19 07:17:38;;;;;;;15.95;10.43;;;12.30;86.70;;;;;;5071051;28;20106;-33
2024/03/19 07:20:09;;;;;;;18.10;11.60;;;12.40;86.80;;;;;;5072428;28;20433;-36
2024/03/19 07:22:35;;;;;;;16.27;11.65;;;12.40;86.70;;;;;;5072360;28;20032;-37
2024/03/19 07:25:02;;;;;;;18.70;11.27;;;12.40;86.70;;;;;;5072382;28;20325;-37
2024/03/19 07:27:27;;;;;;;16.90;10.85;;;12.40;86.60;;;;;;5072536;28;20028;-33
2024/03/19 07:29:53;;;;;;;17.95;11.50;;;12.40;86.50;;;;;;5072072;28;20104;-31
2024/03/19 07:32:19;;;;;;;15.07;10.55;;;12.40;86.60;;;;;;5072103;28;20051;-34
2024/03/19 07:34:44;;;;;;;17.27;11.13;;;12.40;86.50;;;;;;5072338;28;20035;-33
2024/03/19 07:37:10;;;;;;;20.63;11.75;;;12.50;86.50;;;;;;5072093;28;20151;-40
2024/03/19 07:39:36;;;;;;;20.58;11.85;;;12.50;86.50;;;;;;5071951;28;20020;-30
2024/03/19 07:42:03;;;;;;;17.40;10.80;;;12.50;86.50;;;;;;5072246;28;20044;-44
2024/03/19 07:44:29;;;;;;;17.95;10.80;;;12.50;86.50;;;;;;5072020;28;20177;-33
2024/03/19 07:46:54;;;;;;;18.02;11.63;;;12.50;86.50;;;;;;5072192;28;20059;-31
2024/03/19 07:49:20;;;;;;;19.15;11.65;;;12.60;86.50;;;;;;5072040;28;20082;-33
2024/03/19 07:51:45;;;;;;;17.95;11.60;;;12.60;86.50;;;;;;5071771;28;20024;-30
2024/03/19 07:54:11;;;;;;;17.35;11.65;;;12.60;86.50;;;;;;5071839;28;20028;-32
2024/03/19 07:56:40;;;;;;;15.38;11.27;;;12.70;86.50;;;;;;5071797;28;20040;-31
2024/03/19 07:59:06;;;;;;;17.50;10.63;;;12.70;86.40;;;;;;5071495;28;20107;-32
2024/03/19 08:01:32;;;;;;;16.45;10.57;;;12.70;86.40;;;;;;5071526;28;20091;-32
2024/03/19 08:03:58;;;;;;;18.25;10.38;;;12.80;86.40;;;;;;5071594;28;20017;-35
2024/03/19 08:06:23;;;;;;;17.80;10.85;;;12.80;86.30;;;;;;5071922;28;20017;-31
2024/03/19 08:08:49;;;;;;;14.40;9.57;;;12.90;86.30;;;;;;5071645;28;20469;-38
2024/03/19 08:11:18;;;;;;;17.02;11.15;;;12.90;86.20;;;;;;5071544;28;20043;-32
2024/03/19 08:13:44;;;;;;;18.48;10.93;;;13.00;86.10;;;;;;5071509;28;20024;-31
2024/03/19 08:16:09;;;;;;;18.98;11.07;;;13.10;86.10;;;;;;5071524;28;20047;-30
2024/03/19 08:18:35;;;;;;;17.02;10.55;;;13.10;85.90;;;;;;5071462;28;20033;-33
2024/03/19 08:21:00;;;;;;;15.15;9.88;;;13.20;85.90;;;;;;5071508;28;20024;-33
2024/03/19 08:23:26;;;;;;;15.00;9.85;;;13.20;85.80;;;;;;5071456;28;20079;-31
2024/03/19 08:25:51;;;;;;;16.00;10.32;;;13.30;85.70;;;;;;5071630;28;20021;-31
2024/03/19 08:28:19;;;;;;;12.15;9.18;;;13.40;85.60;;;;;;5071515;28;20095;-33
2024/03/19 08:30:45;;;;;;;14.25;9.70;;;13.40;85.50;;;;;;5071476;28;20017;-32
2024/03/19 08:33:11;;;;;;;12.85;8.88;;;13.50;85.40;;;;;;5071715;28;20523;-32
2024/03/19 08:35:36;;;;;;;15.50;9.68;;;13.50;85.20;;;;;;5071072;28;20040;-33
2024/03/19 08:38:02;;;;;;;18.48;9.57;;;13.70;85.10;;;;;;5071235;28;20442;-32
2024/03/19 08:40:30;;;;;;;13.88;8.70;;;13.70;85.00;;;;;;5070968;28;20473;-31
2024/03/19 08:42:55;;;;;;;14.02;9.13;;;13.80;84.90;;;;;;5070635;28;20024;-33
2024/03/19 08:45:23;;;;;;;13.57;8.57;;;13.80;84.70;;;;;;5069723;28;20024;-34
2024/03/19 08:47:50;;;;;;;15.80;8.70;;;13.90;84.60;;;;;;5068656;28;20557;-32
2024/03/19 08:50:16;;;;;;;10.63;7.25;;;13.90;84.40;;;;;;5069657;28;20220;-33
2024/03/19 08:52:42;;;;;;;12.85;7.53;;;14.00;84.30;;;;;;5069573;28;20028;-31
2024/03/19 08:55:08;;;;;;;13.45;7.70;;;14.10;84.20;;;;;;5069681;28;20046;-31
2024/03/19 08:57:34;;;;;;;13.07;7.28;;;14.20;84.00;;;;;;5073119;28;20108;-33
2024/03/19 08:59:59;;;;;;;9.48;6.60;;;14.30;83.80;;;;;;5073779;28;20664;-30
2024/03/19 09:02:26;;;;;;;11.02;6.88;;;14.40;83.60;;;;;;5074916;28;20099;-32
2024/03/19 09:04:52;;;;;;;8.75;5.75;;;14.50;83.50;;;;;;5075169;28;20631;-31
2024/03/19 09:07:17;;;;;;;8.63;5.47;;;14.50;83.30;;;;;;5075107;28;20042;-31
2024/03/19 09:09:47;;;;;;;8.93;5.43;;;14.50;83.40;;;;;;5075017;28;20116;-33
2024/03/19 09:12:13;;;;;;;8.00;5.05;;;14.50;83.30;;;;;;5075082;28;20063;-39
2024/03/19 09:14:38;;;;;;;9.73;5.68;;;14.50;83.20;;;;;;5074964;28;20044;-33
2024/03/19 09:17:04;;;;;;;6.95;4.97;;;14.50;83.10;;;;;;5074649;28;20024;-32
2024/03/19 09:19:39;;;;;;;8.70;5.20;;;14.50;83.10;;;;;;5074794;28;20025;-34
2024/03/19 09:22:05;;;;;;;6.80;5.00;;;14.50;82.90;;;;;;5074956;28;20078;-33
2024/03/19 09:24:31;;;;;;;5.78;4.05;;;14.50;82.80;;;;;;5074605;28;20391;-31
2024/03/19 09:26:56;;;;;;;6.13;3.85;;;14.60;82.80;;;;;;5074610;28;20081;-31
2024/03/19 09:29:22;;;;;;;7.18;3.38;;;14.70;82.60;;;;;;5074471;28;20477;-31
2024/03/19 09:31:48;;;;;;;8.65;3.42;;;14.70;82.30;;;;;;5074671;28;20042;-31
2024/03/19 09:34:13;;;;;;;4.65;2.92;;;14.80;82.10;;;;;;5074332;28;20056;-32
2024/03/19 09:36:39;;;;;;;3.53;2.25;;;14.80;81.90;;;;;;5074372;28;20044;-36
2024/03/19 09:39:10;;;;;;;3.75;2.20;;;15.00;81.60;;;;;;5074421;28;20024;-31
2024/03/19 09:41:42;;;;;;;2.53;1.98;;;15.10;81.30;;;;;;5074699;28;20020;-35
2024/03/19 09:44:16;;;;;;;4.30;1.88;;;15.10;81.00;;;;;;5074453;28;20362;-32
2024/03/19 09:46:42;;;;;;;3.33;1.80;;;15.20;80.70;;;;;;5074188;28;20078;-34
2024/03/19 09:49:16;;;;;;;3.60;1.60;;;15.20;80.30;;;;;;5074133;28;20021;-31
2024/03/19 09:51:42;;;;;;;2.45;1.52;;;15.30;80.00;;;;;;5074099;28;20140;-32
2024/03/19 09:54:11;;;;;;;1.35;1.17;;;15.40;79.70;;;;;;5074022;28;20100;-31
2024/03/19 09:56:38;;;;;;;1.67;1.30;;;15.50;79.20;;;;;;5073914;28;20476;-32
2024/03/19 09:59:10;;;;;;;3.17;1.30;;;15.50;78.70;;;;;;5073606;28;20036;-34
2024/03/19 10:01:36;;;;;;;1.15;1.02;;;15.60;78.40;;;;;;5074037;28;20023;-33
2024/03/19 10:04:01;;;;;;;2.55;1.20;;;15.70;78.20;;;;;;5073888;28;20013;-32
2024/03/19 10:06:27;;;;;;;1.35;1.25;;;15.70;78.10;;;;;;5073637;28;20093;-29
2024/03/19 10:08:53;;;;;;;1.02;0.93;;;15.80;78.10;;;;;;5073996;28;20063;-33
2024/03/19 10:11:19;;;;;;;1.60;1.08;;;15.90;78.90;;;;;;5072505;28;20024;-31
2024/03/19 10:13:44;;;;;;;1.80;1.00;;;15.90;77.90;;;;;;5073656;28;20051;-31
2024/03/19 10:16:11;;;;;;;1.58;1.25;;;16.00;77.70;;;;;;5073624;28;20029;-31
2024/03/19 10:18:38;;;;;;;2.30;0.95;;;16.00;77.10;;;;;;5073392;28;20039;-33
2024/03/19 10:21:06;;;;;;;1.83;1.40;;;16.00;76.70;;;;;;5073521;28;20040;-30
2024/03/19 10:23:32;;;;;;;1.95;1.15;;;16.10;76.40;;;;;;5073422;28;20024;-31
2024/03/19 10:25:58;;;;;;;1.88;1.13;;;16.10;76.30;;;;;;5073453;28;20134;-32
2024/03/19 10:28:23;;;;;;;1.50;1.08;;;16.10;76.30;;;;;;5073747;28;20021;-37
2024/03/19 10:30:49;;;;;;;2.28;1.30;;;16.10;76.30;;;;;;5073336;28;20028;-31
2024/03/19 10:33:16;;;;;;;1.83;1.25;;;16.20;77.00;;;;;;5073324;28;20062;-35
2024/03/19 10:35:42;;;;;;;2.25;1.38;;;16.20;76.70;;;;;;5073302;28;20036;-33
2024/03/19 10:38:13;;;;;;;3.30;1.60;;;16.30;76.30;;;;;;5073282;28;20024;-31
2024/03/19 10:40:41;;;;;;;4.13;1.63;;;16.40;76.00;;;;;;5072890;28;20024;-31
2024/03/19 10:43:15;;;;;;;2.40;1.80;;;16.40;75.50;;;;;;5073455;28;20521;-33
2024/03/19 10:45:45;;;;;;;2.65;1.75;;;16.50;75.30;;;;;;5073059;28;20027;-33
2024/03/19 10:48:12;;;;;;;2.50;1.98;;;16.50;75.80;;;;;;5071708;28;20020;-31
2024/03/19 10:50:40;;;;;;;4.43;2.20;;;16.60;75.90;;;;;;5072754;28;20472;-31
2024/03/19 10:53:13;;;;;;;3.13;2.30;;;16.60;75.40;;;;;;5073246;28;20381;-38
2024/03/19 10:55:39;;;;;;;;;;;16.60;75.00;;;;;;5073520;28;20025;-31
2024/03/19 10:58:11;;;;;;;3.47;2.20;;;16.70;75.10;;;;;;5072782;28;19911;-33
2024/03/19 11:00:41;;;;;;;5.78;2.20;;;16.70;75.10;;;;;;5072588;28;20366;-31
2024/03/19 11:03:11;;;;;;;3.67;2.20;;;16.80;74.90;;;;;;5072561;28;20052;-32
2024/03/19 11:05:38;;;;;;;5.65;2.55;;;16.80;74.70;;;;;;5072754;28;20062;-32
2024/03/19 11:08:05;;;;;;;6.45;2.60;;;16.90;74.50;;;;;;5072543;28;20012;-31
2024/03/19 11:10:35;;;;;;;6.15;2.75;;;16.90;74.20;;;;;;5072697;28;20469;-33
2024/03/19 11:13:08;;;;;;;4.40;2.40;;;17.00;74.20;;;;;;5072582;28;20029;-31
2024/03/19 11:15:35;;;;;;;3.80;2.40;;;17.10;73.80;;;;;;5072411;28;20170;-32
2024/03/19 11:18:16;;;;;;;6.63;2.42;;;17.00;74.00;;;;;;5072378;28;20133;-32
2024/03/19 11:20:52;;;;;;;4.40;1.90;;;17.00;74.10;;;;;;5072303;28;20032;-33
2024/03/19 11:23:23;;;;;;;6.85;2.20;;;17.00;74.00;;;;;;5072230;28;20021;-31
2024/03/19 11:25:54;;;;;;;5.95;2.17;;;16.80;73.90;;;;;;5072415;28;20017;-31
2024/03/19 11:28:22;;;;;;;3.45;2.10;;;16.70;73.80;;;;;;5072478;28;20023;-31
2024/03/19 11:30:51;;;;;;;4.63;2.42;;;16.70;73.70;;;;;;5072279;28;20028;-35
2024/03/19 11:33:18;;;;;;;6.32;2.50;;;16.70;73.50;;;;;;5072139;28;20058;-31
2024/03/19 11:35:46;;;;;;;4.97;2.08;;;16.80;73.50;;;;;;5071894;28;20527;-33
2024/03/19 11:38:15;;;;;;;4.40;2.00;;;16.80;73.40;;;;;;5072273;28;20055;-37
2024/03/19 11:40:41;;;;;;;4.57;2.10;;;16.90;73.40;;;;;;5072034;28;20143;-32
2024/03/19 11:43:14;;;;;;;3.97;2.00;;;17.00;73.20;;;;;;5072005;28;20556;-31
2024/03/19 11:45:43;;;;;;;;;;;17.10;72.80;;;;;;5072312;28;20493;-33
2024/03/19 11:48:22;;;;;;;4.63;2.10;;;17.20;72.70;;;;;;5070641;28;19934;-31
2024/03/19 11:50:58;;;;;;;3.15;1.88;;;17.40;72.70;;;;;;5071906;28;20021;-32
2024/03/19 11:53:26;;;;;;;5.95;2.28;;;17.50;72.40;;;;;;5072102;28;20025;-35
2024/03/19 11:55:54;;;;;;;4.75;2.65;;;17.60;72.00;;;;;;5072046;28;20481;-31
2024/03/19 11:58:19;;;;;;;4.07;2.25;;;17.70;71.70;;;;;;5071788;28;20034;-31
2024/03/19 12:00:46;;;;;;;6.70;2.92;;;17.90;71.50;;;;;;5071802;28;20195;-32
2024/03/19 12:03:15;;;;;;;5.00;2.35;;;17.90;71.20;;;;;;5070605;28;20108;-33
2024/03/19 12:05:50;;;;;;;6.93;2.38;;;18.00;71.10;;;;;;5071788;28;20029;-35
2024/03/19 12:08:16;;;;;;;4.28;2.10;;;18.00;71.10;;;;;;5071825;28;20048;-34
2024/03/19 12:10:42;;;;;;;5.63;2.22;;;18.00;71.10;;;;;;5071356;28;20032;-35
2024/03/19 12:13:12;;;;;;;5.05;2.22;;;18.00;70.80;;;;;;5071441;28;20102;-36
2024/03/19 12:15:39;;;;;;;4.18;1.95;;;18.00;71.10;;;;;;5070112;28;20123;-32
2024/03/19 12:18:06;;;;;;;4.70;1.80;;;18.00;71.10;;;;;;5069952;28;20081;-36
2024/03/19 12:20:34;;;;;;;5.00;1.55;;;18.00;70.90;;;;;;5071670;28;20388;-31
2024/03/19 12:23:00;;;;;;;3.97;1.80;;;18.00;70.70;;;;;;5070066;28;20477;-30
2024/03/19 12:25:27;;;;;;;3.58;1.60;;;18.00;70.50;;;;;;5071399;28;20032;-32
2024/03/19 12:27:53;;;;;;;4.05;1.65;;;18.10;70.30;;;;;;5071293;28;20071;-37
2024/03/19 12:30:21;;;;;;;4.82;1.77;;;18.10;70.30;;;;;;5071266;28;20029;-36
2024/03/19 12:35:33;;;;;;;5.77;1.93;;;18.10;69.70;;;;;;5075647;28;20044;-33